createdAt,value
2019-03-09T00:01:17.660Z,5.58
2019-03-09T00:03:47.207Z,5.60
2019-03-09T00:06:17.122Z,5.63
2019-03-09T00:08:46.668Z,5.65
2019-03-09T00:11:16.534Z,5.65
2019-03-09T00:13:46.568Z,5.67
2019-03-09T00:16:16.167Z,5.67
2019-03-09T00:18:45.719Z,5.68
2019-03-09T00:21:15.631Z,5.71
2019-03-09T00:23:44.924Z,5.73
2019-03-09T00:26:16.126Z,5.72
2019-03-09T00:28:59.374Z,5.70
2019-03-09T00:31:46.693Z,5.67
2019-03-09T00:34:16.431Z,5.62
2019-03-09T00:36:46.006Z,5.58
2019-03-09T00:39:15.905Z,5.57
2019-03-09T00:41:45.492Z,5.57
2019-03-09T00:44:15.048Z,5.58
2019-03-09T00:46:44.618Z,5.58
2019-03-09T00:49:14.289Z,5.59
2019-03-09T00:51:44.122Z,5.60
2019-03-09T00:54:15.177Z,5.61
2019-03-09T00:56:45.048Z,5.64
2019-03-09T00:59:14.594Z,5.66
2019-03-09T01:01:44.152Z,5.72
2019-03-09T01:04:13.889Z,5.72
2019-03-09T01:06:43.441Z,5.75
2019-03-09T01:09:13.125Z,5.77
2019-03-09T01:11:42.796Z,5.78
2019-03-09T01:14:12.346Z,5.80
2019-03-09T01:16:42.037Z,5.81
2019-03-09T01:19:11.622Z,5.82
2019-03-09T01:21:41.243Z,5.82
2019-03-09T01:24:10.796Z,5.82
2019-03-09T01:26:40.447Z,5.83
2019-03-09T01:29:10.015Z,5.83
2019-03-09T01:31:39.561Z,5.85
2019-03-09T01:34:09.541Z,5.86
2019-03-09T01:36:39.087Z,5.87
2019-03-09T01:39:08.899Z,5.85
2019-03-09T01:41:38.638Z,5.84
2019-03-09T01:44:08.177Z,5.85
2019-03-09T01:46:37.724Z,5.83
2019-03-09T01:49:07.815Z,5.80
2019-03-09T01:51:37.362Z,5.74
2019-03-09T01:54:07.056Z,5.67
2019-03-09T01:56:36.704Z,5.63
2019-03-09T01:59:06.253Z,5.60
2019-03-09T02:01:35.795Z,5.60
2019-03-09T02:04:05.593Z,5.61
2019-03-09T02:06:35.229Z,5.62
2019-03-09T02:09:06.777Z,5.63
2019-03-09T02:11:36.616Z,5.64
2019-03-09T02:14:06.322Z,5.65
2019-03-09T02:16:35.876Z,5.67
2019-03-09T02:19:05.517Z,5.71
2019-03-09T02:21:35.171Z,5.73
2019-03-09T02:24:04.718Z,5.75
2019-03-09T02:26:34.275Z,5.79
2019-03-09T02:29:03.862Z,5.82
2019-03-09T02:31:33.402Z,5.86
2019-03-09T02:34:02.956Z,5.91
2019-03-09T02:36:32.544Z,5.98
2019-03-09T02:39:12.661Z,6.01
2019-03-09T02:41:42.263Z,6.06
2019-03-09T02:44:11.813Z,6.11
2019-03-09T02:46:41.361Z,6.15
2019-03-09T02:49:10.920Z,6.16
2019-03-09T02:51:40.469Z,6.20
2019-03-09T02:54:10.484Z,6.24
2019-03-09T02:56:40.041Z,6.27
2019-03-09T02:59:09.577Z,6.31
2019-03-09T03:01:40.794Z,6.34
2019-03-09T03:04:10.356Z,6.38
2019-03-09T03:06:39.933Z,6.38
2019-03-09T03:09:10.045Z,6.40
2019-03-09T03:11:39.588Z,6.42
2019-03-09T03:14:09.164Z,6.44
2019-03-09T03:16:39.004Z,6.45
2019-03-09T03:19:08.578Z,6.46
2019-03-09T03:21:38.125Z,6.48
2019-03-09T03:24:07.694Z,6.47
2019-03-09T03:26:37.254Z,6.46
2019-03-09T03:29:06.807Z,6.45
2019-03-09T03:31:36.379Z,6.43
2019-03-09T03:34:05.943Z,6.41
2019-03-09T03:36:35.505Z,6.40
2019-03-09T03:39:07.365Z,6.39
2019-03-09T03:41:37.212Z,6.38
2019-03-09T03:44:06.761Z,6.38
2019-03-09T03:46:36.298Z,6.40
2019-03-09T03:49:05.977Z,6.40
2019-03-09T03:51:35.566Z,6.41
2019-03-09T03:54:05.268Z,6.42
2019-03-09T03:56:34.902Z,6.44
2019-03-09T03:59:04.689Z,6.48
2019-03-09T04:01:34.240Z,6.49
2019-03-09T04:04:03.941Z,6.49
2019-03-09T04:06:33.672Z,6.47
2019-03-09T04:09:04.095Z,6.44
2019-03-09T04:11:34.772Z,6.44
2019-03-09T04:14:04.544Z,6.44
2019-03-09T04:16:34.117Z,6.44
2019-03-09T04:19:03.684Z,6.45
2019-03-09T04:21:33.199Z,6.44
2019-03-09T04:24:02.765Z,6.44
2019-03-09T04:26:32.394Z,6.44
2019-03-09T04:29:02.101Z,6.45
2019-03-09T04:31:31.726Z,6.46
2019-03-09T04:34:01.721Z,6.49
2019-03-09T04:36:31.320Z,6.50
2019-03-09T04:39:00.858Z,6.53
2019-03-09T04:41:30.427Z,6.55
2019-03-09T04:43:59.970Z,6.55
2019-03-09T04:46:29.547Z,6.58
2019-03-09T04:48:59.092Z,6.60
2019-03-09T04:51:28.689Z,6.60
2019-03-09T04:53:58.204Z,6.61
2019-03-09T04:56:27.919Z,6.61
2019-03-09T04:58:57.487Z,6.61
2019-03-09T05:01:27.019Z,6.65
2019-03-09T05:04:26.991Z,6.67
2019-03-09T05:06:56.535Z,6.68
2019-03-09T05:09:50.124Z,6.67
2019-03-09T05:12:19.676Z,6.65
2019-03-09T05:14:49.212Z,6.60
2019-03-09T05:17:18.776Z,6.53
2019-03-09T05:19:48.328Z,6.48
2019-03-09T05:22:17.896Z,6.44
2019-03-09T05:24:47.452Z,6.42
2019-03-09T05:27:16.990Z,6.41
2019-03-09T05:29:46.559Z,6.41
2019-03-09T05:32:16.105Z,6.41
2019-03-09T05:34:45.690Z,6.41
2019-03-09T05:37:15.330Z,6.42
2019-03-09T05:39:44.942Z,6.43
2019-03-09T05:42:14.527Z,6.42
2019-03-09T05:44:44.140Z,6.41
2019-03-09T05:47:13.711Z,6.40
2019-03-09T05:49:43.266Z,6.40
2019-03-09T05:52:26.846Z,6.42
2019-03-09T05:54:56.381Z,6.43
2019-03-09T05:57:25.931Z,6.43
2019-03-09T06:00:15.406Z,6.43
2019-03-09T06:02:44.984Z,6.40
2019-03-09T06:05:32.749Z,6.36
2019-03-09T06:08:02.351Z,6.30
2019-03-09T06:10:31.915Z,6.23
2019-03-09T06:13:01.448Z,6.17
2019-03-09T06:15:31.025Z,6.11
2019-03-09T06:18:00.554Z,6.08
2019-03-09T06:20:30.144Z,6.05
2019-03-09T06:22:59.700Z,6.02
2019-03-09T06:25:29.455Z,5.99
2019-03-09T06:27:59.008Z,5.98
2019-03-09T06:30:29.715Z,5.95
2019-03-09T06:33:21.605Z,5.93
2019-03-09T06:36:14.046Z,5.92
2019-03-09T06:38:56.468Z,5.90
2019-03-09T06:41:34.459Z,5.89
2019-03-09T06:44:04.008Z,5.86
2019-03-09T06:46:33.551Z,5.86
2019-03-09T06:49:03.113Z,5.87
2019-03-09T06:51:32.662Z,5.88
2019-03-09T06:54:02.240Z,5.89
2019-03-09T06:56:31.779Z,5.89
2019-03-09T06:59:01.464Z,5.90
2019-03-09T07:01:31.006Z,5.93
2019-03-09T07:04:00.547Z,5.92
2019-03-09T07:06:30.122Z,5.92
2019-03-09T07:08:59.660Z,5.94
2019-03-09T07:11:29.236Z,5.94
2019-03-09T07:14:20.112Z,5.97
2019-03-09T07:16:49.786Z,6.00
2019-03-09T07:19:19.333Z,6.03
2019-03-09T07:21:48.876Z,6.08
2019-03-09T07:24:18.456Z,6.14
2019-03-09T07:26:48.011Z,6.21
2019-03-09T07:29:17.586Z,6.26
2019-03-09T07:31:47.128Z,6.29
2019-03-09T07:34:25.985Z,6.34
2019-03-09T07:36:55.529Z,6.41
2019-03-09T07:39:25.067Z,6.42
2019-03-09T07:41:54.643Z,6.45
2019-03-09T07:44:24.182Z,6.49
2019-03-09T07:46:53.830Z,6.54
2019-03-09T07:49:23.381Z,6.58
2019-03-09T07:51:52.933Z,6.63
2019-03-09T07:54:22.512Z,6.71
2019-03-09T07:56:52.060Z,6.79
2019-03-09T07:59:21.641Z,6.85
2019-03-09T08:01:51.125Z,6.88
2019-03-09T08:04:20.716Z,6.93
2019-03-09T08:06:50.566Z,7.03
2019-03-09T08:09:20.068Z,7.10
2019-03-09T08:11:49.575Z,7.16
2019-03-09T08:14:19.433Z,7.19
2019-03-09T08:16:50.398Z,7.21
2019-03-09T08:19:20.301Z,7.26
2019-03-09T08:21:49.840Z,7.32
2019-03-09T08:24:19.360Z,7.44
2019-03-09T08:26:48.869Z,7.63
2019-03-09T08:29:18.392Z,7.86
2019-03-09T08:31:47.894Z,8.12
2019-03-09T08:34:17.377Z,8.26
2019-03-09T08:36:46.922Z,8.27
2019-03-09T08:39:16.423Z,8.17
2019-03-09T08:41:45.924Z,8.02
2019-03-09T08:44:15.777Z,7.88
2019-03-09T08:46:45.291Z,7.77
2019-03-09T08:49:14.791Z,7.67
2019-03-09T08:51:44.328Z,7.60
2019-03-09T08:54:13.850Z,7.56
2019-03-09T08:56:43.329Z,7.54
2019-03-09T08:59:13.041Z,7.52
2019-03-09T09:01:42.539Z,7.52
2019-03-09T09:04:12.044Z,8.03
2019-03-09T09:06:41.571Z,9.50
2019-03-09T09:09:11.084Z,11.19
2019-03-09T09:11:40.580Z,12.67
2019-03-09T09:14:10.119Z,14.03
2019-03-09T09:16:39.615Z,14.97
2019-03-09T09:19:09.120Z,15.79
2019-03-09T09:21:38.776Z,16.48
2019-03-09T09:24:08.362Z,16.98
2019-03-09T09:26:37.884Z,17.42
2019-03-09T09:29:07.497Z,17.72
2019-03-09T09:31:37.003Z,18.00
2019-03-09T09:34:06.592Z,18.36
2019-03-09T09:36:36.644Z,18.43
2019-03-09T09:39:08.170Z,17.70
2019-03-09T09:41:37.754Z,17.44
2019-03-09T09:44:07.376Z,16.28
2019-03-09T09:46:36.866Z,15.24
2019-03-09T09:49:06.391Z,15.08
2019-03-09T09:51:35.917Z,15.48
2019-03-09T09:54:05.487Z,16.26
2019-03-09T09:56:35.011Z,16.96
2019-03-09T09:59:04.531Z,17.61
2019-03-09T10:01:34.142Z,18.15
2019-03-09T10:04:04.942Z,18.61
2019-03-09T10:06:34.667Z,18.69
2019-03-09T10:09:06.146Z,18.50
2019-03-09T10:11:35.648Z,17.70
2019-03-09T10:14:05.350Z,16.35
2019-03-09T10:16:34.867Z,15.34
2019-03-09T10:19:04.382Z,15.74
2019-03-09T10:21:34.087Z,16.49
2019-03-09T10:24:03.603Z,17.50
2019-03-09T10:26:33.107Z,18.04
2019-03-09T10:29:02.637Z,17.85
2019-03-09T10:31:32.156Z,16.78
2019-03-09T10:34:01.708Z,15.56
2019-03-09T10:36:31.218Z,14.69
2019-03-09T10:39:00.746Z,14.17
2019-03-09T10:41:30.593Z,13.64
2019-03-09T10:44:00.109Z,13.11
2019-03-09T10:46:29.644Z,12.66
2019-03-09T10:48:59.147Z,12.46
2019-03-09T10:51:28.755Z,12.34
2019-03-09T10:53:58.264Z,12.36
2019-03-09T10:56:27.771Z,12.34
2019-03-09T10:58:57.292Z,12.27
2019-03-09T11:01:26.806Z,12.23
2019-03-09T11:03:56.312Z,12.20
2019-03-09T11:06:25.832Z,12.24
2019-03-09T11:08:55.333Z,12.31
2019-03-09T11:11:24.862Z,12.31
2019-03-09T11:13:54.434Z,12.33
2019-03-09T11:16:23.946Z,12.36
2019-03-09T11:18:53.472Z,12.42
2019-03-09T11:21:23.050Z,12.42
2019-03-09T11:23:52.699Z,12.32
2019-03-09T11:26:22.351Z,12.14
2019-03-09T11:28:51.995Z,11.93
2019-03-09T11:31:21.518Z,11.85
2019-03-09T11:33:51.036Z,11.93
2019-03-09T11:36:20.564Z,12.10
2019-03-09T11:38:50.073Z,12.31
2019-03-09T11:41:19.636Z,12.30
2019-03-09T11:43:49.153Z,12.24
2019-03-09T11:46:18.686Z,12.33
2019-03-09T11:48:48.278Z,12.44
2019-03-09T11:51:17.798Z,12.54
2019-03-09T11:53:47.324Z,12.59
2019-03-09T11:56:16.853Z,12.68
2019-03-09T11:58:46.334Z,12.75
2019-03-09T12:01:15.875Z,12.73
2019-03-09T12:03:47.288Z,12.67
2019-03-09T12:06:16.786Z,12.61
2019-03-09T12:08:46.305Z,12.53
2019-03-09T12:11:15.879Z,12.53
2019-03-09T12:13:45.416Z,12.66
2019-03-09T12:16:14.928Z,12.86
2019-03-09T12:18:44.621Z,12.99
2019-03-09T12:21:14.134Z,13.12
2019-03-09T12:23:43.642Z,13.21
2019-03-09T12:26:13.157Z,13.37
2019-03-09T12:28:42.909Z,13.44
2019-03-09T12:31:12.447Z,13.27
2019-03-09T12:33:42.044Z,13.08
2019-03-09T12:36:11.562Z,12.96
2019-03-09T12:38:41.338Z,12.92
2019-03-09T12:41:10.854Z,12.89
2019-03-09T12:43:40.390Z,12.87
2019-03-09T12:46:09.901Z,12.89
2019-03-09T12:48:39.408Z,12.99
2019-03-09T12:51:08.937Z,13.13
2019-03-09T12:53:38.438Z,13.23
2019-03-09T12:56:07.972Z,13.23
2019-03-09T12:58:37.495Z,13.15
2019-03-09T13:01:07.003Z,13.01
2019-03-09T13:03:36.528Z,12.95
2019-03-09T13:06:06.111Z,12.86
2019-03-09T13:08:36.062Z,12.74
2019-03-09T13:11:05.588Z,12.67
2019-03-09T13:13:35.092Z,12.71
2019-03-09T13:16:04.607Z,12.70
2019-03-09T13:18:34.110Z,12.71
2019-03-09T13:21:03.702Z,12.75
2019-03-09T13:23:33.220Z,12.76
2019-03-09T13:26:02.805Z,12.78
2019-03-09T13:28:32.319Z,12.74
2019-03-09T13:31:01.821Z,12.75
2019-03-09T13:33:31.351Z,12.75
2019-03-09T13:36:00.870Z,12.77
2019-03-09T13:38:30.401Z,12.79
2019-03-09T13:41:00.026Z,12.86
2019-03-09T13:43:29.488Z,12.85
2019-03-09T13:45:59.019Z,12.73
2019-03-09T13:48:28.542Z,12.55
2019-03-09T13:50:58.279Z,12.36
2019-03-09T13:53:27.793Z,12.27
2019-03-09T13:55:57.304Z,12.19
2019-03-09T13:58:26.841Z,12.09
2019-03-09T14:00:56.369Z,12.05
2019-03-09T14:03:25.907Z,12.19
2019-03-09T14:05:55.413Z,12.53
2019-03-09T14:08:25.310Z,12.88
2019-03-09T14:10:54.826Z,13.08
2019-03-09T14:13:24.422Z,13.14
2019-03-09T14:15:53.946Z,13.14
2019-03-09T14:18:23.452Z,13.09
2019-03-09T14:20:53.006Z,13.00
2019-03-09T14:23:22.523Z,12.87
2019-03-09T14:25:52.033Z,12.76
2019-03-09T14:28:21.567Z,12.64
2019-03-09T14:30:51.076Z,12.51
2019-03-09T14:33:20.942Z,12.36
2019-03-09T14:35:50.462Z,12.24
2019-03-09T14:38:19.969Z,12.14
2019-03-09T14:40:49.514Z,12.08
2019-03-09T14:43:19.023Z,12.01
2019-03-09T14:45:48.569Z,11.96
2019-03-09T14:48:18.073Z,11.94
2019-03-09T14:50:47.577Z,11.92
2019-03-09T14:53:17.096Z,11.93
2019-03-09T14:55:46.610Z,11.91
2019-03-09T14:58:16.148Z,11.85
2019-03-09T15:00:45.662Z,11.80
2019-03-09T15:03:15.183Z,11.75
2019-03-09T15:05:44.706Z,11.74
2019-03-09T15:08:14.217Z,11.83
2019-03-09T15:10:43.736Z,11.85
2019-03-09T15:13:13.251Z,11.76
2019-03-09T15:15:42.758Z,11.49
2019-03-09T15:18:12.275Z,11.14
2019-03-09T15:20:41.782Z,10.79
2019-03-09T15:23:11.498Z,10.47
2019-03-09T15:25:41.007Z,10.24
2019-03-09T15:28:10.516Z,10.07
2019-03-09T15:30:40.033Z,10.01
2019-03-09T15:33:09.551Z,9.99
2019-03-09T15:35:39.071Z,10.01
2019-03-09T15:38:08.585Z,10.04
2019-03-09T15:40:38.108Z,10.08
2019-03-09T15:43:07.716Z,10.10
2019-03-09T15:45:37.231Z,10.12
2019-03-09T15:48:06.754Z,10.13
2019-03-09T15:50:36.267Z,10.14
2019-03-09T15:53:05.860Z,10.14
2019-03-09T15:55:35.380Z,10.15
2019-03-09T15:58:05.037Z,10.17
2019-03-09T16:00:34.644Z,10.16
2019-03-09T16:03:04.156Z,10.16
2019-03-09T16:05:33.686Z,10.14
2019-03-09T16:08:03.200Z,10.06
2019-03-09T16:10:32.757Z,9.91
2019-03-09T16:13:02.278Z,9.79
2019-03-09T16:15:31.797Z,9.70
2019-03-09T16:18:01.329Z,9.58
2019-03-09T16:20:31.309Z,9.45
2019-03-09T16:23:00.811Z,9.18
2019-03-09T16:25:30.327Z,8.68
2019-03-09T16:27:59.855Z,8.19
2019-03-09T16:30:29.386Z,7.79
2019-03-09T16:32:58.883Z,7.51
2019-03-09T16:35:28.387Z,7.31
2019-03-09T16:37:57.903Z,7.18
2019-03-09T16:40:27.573Z,7.04
2019-03-09T16:42:57.104Z,6.88
2019-03-09T16:45:26.599Z,6.78
2019-03-09T16:47:56.114Z,6.72
2019-03-09T16:50:25.625Z,6.69
2019-03-09T16:52:55.130Z,6.64
2019-03-09T16:55:24.688Z,6.55
2019-03-09T16:57:54.206Z,6.46
2019-03-09T17:00:25.028Z,6.34
2019-03-09T17:02:54.607Z,6.23
2019-03-09T17:05:24.106Z,6.15
2019-03-09T17:07:53.611Z,6.10
2019-03-09T17:10:23.123Z,6.05
2019-03-09T17:12:52.748Z,6.00
2019-03-09T17:15:24.779Z,5.97
2019-03-09T17:17:54.281Z,5.95
2019-03-09T17:20:23.766Z,5.95
2019-03-09T17:22:53.303Z,6.00
2019-03-09T17:25:22.808Z,6.07
2019-03-09T17:27:52.319Z,6.13
2019-03-09T17:30:22.462Z,6.21
2019-03-09T17:32:51.973Z,6.29
2019-03-09T17:35:21.552Z,6.37
2019-03-09T17:37:51.055Z,6.42
2019-03-09T17:40:20.644Z,6.46
2019-03-09T17:42:50.185Z,6.48
2019-03-09T17:45:25.379Z,6.50
2019-03-09T17:47:55.097Z,6.50
2019-03-09T17:50:24.675Z,6.49
2019-03-09T17:52:54.181Z,6.45
2019-03-09T17:55:23.768Z,6.43
2019-03-09T17:57:53.284Z,6.41
2019-03-09T18:00:42.231Z,6.37
2019-03-09T18:03:04.918Z,6.32
2019-03-09T18:05:34.425Z,6.29
2019-03-09T18:08:03.933Z,6.25
2019-03-09T18:10:49.823Z,6.20
2019-03-09T18:13:19.335Z,6.14
2019-03-09T18:15:48.837Z,6.08
2019-03-09T18:18:18.368Z,6.05
2019-03-09T18:20:47.866Z,6.03
2019-03-09T18:23:17.371Z,6.01
2019-03-09T18:25:46.878Z,6.02
2019-03-09T18:28:16.403Z,6.05
2019-03-09T18:30:46.084Z,6.06
2019-03-09T18:33:15.662Z,6.11
2019-03-09T18:35:45.167Z,6.11
2019-03-09T18:38:14.674Z,6.09
2019-03-09T18:40:44.162Z,6.03
2019-03-09T18:43:13.955Z,5.95
2019-03-09T18:45:43.449Z,5.92
2019-03-09T18:48:12.957Z,5.93
2019-03-09T18:50:42.463Z,5.96
2019-03-09T18:53:11.979Z,6.02
2019-03-09T18:55:41.473Z,6.06
2019-03-09T18:58:10.971Z,6.07
2019-03-09T19:00:40.540Z,6.08
2019-03-09T19:03:10.058Z,6.10
2019-03-09T19:05:39.558Z,6.11
2019-03-09T19:08:09.176Z,6.15
2019-03-09T19:10:38.668Z,6.21
2019-03-09T19:13:08.164Z,6.28
2019-03-09T19:15:37.678Z,6.32
2019-03-09T19:18:07.167Z,6.35
2019-03-09T19:20:36.672Z,6.40
2019-03-09T19:23:06.194Z,6.42
2019-03-09T19:25:35.820Z,6.45
2019-03-09T19:28:05.460Z,6.50
2019-03-09T19:30:35.005Z,6.52
2019-03-09T19:33:04.514Z,6.58
2019-03-09T19:35:34.058Z,6.62
2019-03-09T19:38:03.553Z,6.64
2019-03-09T19:40:33.147Z,6.65
2019-03-09T19:43:02.636Z,6.64
2019-03-09T19:45:32.133Z,6.65
2019-03-09T19:48:01.652Z,6.69
2019-03-09T19:50:31.185Z,6.72
2019-03-09T19:53:00.697Z,6.76
2019-03-09T19:55:30.211Z,6.76
2019-03-09T19:57:59.726Z,6.77
2019-03-09T20:00:29.262Z,6.78
2019-03-09T20:02:58.721Z,6.77
2019-03-09T20:05:28.227Z,6.79
2019-03-09T20:07:57.815Z,6.82
2019-03-09T20:10:27.633Z,6.85
2019-03-09T20:12:57.109Z,6.88
2019-03-09T20:15:26.626Z,6.89
2019-03-09T20:17:56.134Z,6.92
2019-03-09T20:20:25.634Z,6.94
2019-03-09T20:22:56.901Z,6.94
2019-03-09T20:25:28.449Z,6.93
2019-03-09T20:27:57.638Z,6.91
2019-03-09T20:30:27.208Z,6.87
2019-03-09T20:32:56.721Z,6.81
2019-03-09T20:35:26.222Z,6.77
2019-03-09T20:37:56.656Z,6.71
2019-03-09T20:40:26.486Z,6.69
2019-03-09T20:42:56.014Z,6.67
2019-03-09T20:45:25.682Z,6.67
2019-03-09T20:47:55.176Z,6.69
2019-03-09T20:50:25.133Z,6.69
2019-03-09T20:52:54.650Z,6.70
2019-03-09T20:55:24.237Z,6.70
2019-03-09T20:57:53.751Z,6.68
2019-03-09T21:00:24.284Z,6.61
2019-03-09T21:02:53.780Z,6.56
2019-03-09T21:05:23.308Z,6.53
2019-03-09T21:07:53.066Z,6.51
2019-03-09T21:10:23.012Z,6.51
2019-03-09T21:13:01.243Z,6.49
2019-03-09T21:15:30.747Z,6.47
2019-03-09T21:18:00.318Z,6.41
2019-03-09T21:20:29.816Z,6.38
2019-03-09T21:22:59.580Z,6.34
2019-03-09T21:25:29.057Z,6.31
2019-03-09T21:27:58.629Z,6.30
2019-03-09T21:30:28.135Z,6.27
2019-03-09T21:32:57.639Z,6.25
2019-03-09T21:35:27.146Z,6.21
2019-03-09T21:37:56.659Z,6.16
2019-03-09T21:40:26.192Z,6.13
2019-03-09T21:42:55.668Z,6.03
2019-03-09T21:45:25.204Z,5.89
2019-03-09T21:47:54.700Z,5.81
2019-03-09T21:50:24.319Z,5.76
2019-03-09T21:52:53.840Z,5.70
2019-03-09T21:55:23.342Z,5.63
2019-03-09T21:57:52.845Z,5.60
2019-03-09T22:00:23.194Z,5.59
2019-03-09T22:02:52.881Z,5.59
2019-03-09T22:05:22.413Z,5.60
2019-03-09T22:07:51.879Z,5.59
2019-03-09T22:10:21.403Z,5.57
2019-03-09T22:12:50.901Z,5.55
2019-03-09T22:15:20.403Z,5.52
2019-03-09T22:17:49.974Z,5.51
2019-03-09T22:20:20.625Z,5.51
2019-03-09T22:22:50.293Z,5.51
2019-03-09T22:25:19.940Z,5.51
2019-03-09T22:27:49.463Z,5.50
2019-03-09T22:30:21.439Z,5.50
2019-03-09T22:32:50.956Z,5.51
2019-03-09T22:35:20.637Z,5.49
2019-03-09T22:37:50.149Z,5.49
2019-03-09T22:40:20.711Z,5.48
2019-03-09T22:42:50.714Z,5.47
2019-03-09T22:45:20.219Z,5.46
2019-03-09T22:47:49.952Z,5.44
2019-03-09T22:50:27.203Z,5.41
2019-03-09T22:52:56.717Z,5.35
2019-03-09T22:55:26.231Z,5.21
2019-03-09T22:57:55.745Z,5.07
2019-03-09T23:00:28.908Z,4.99
2019-03-09T23:02:58.386Z,4.88
2019-03-09T23:05:27.911Z,4.74
2019-03-09T23:07:57.432Z,4.64
2019-03-09T23:10:28.544Z,4.54
2019-03-09T23:12:58.101Z,4.47
2019-03-09T23:15:27.633Z,4.46
2019-03-09T23:17:57.140Z,4.43
2019-03-09T23:20:26.669Z,4.39
2019-03-09T23:22:56.480Z,4.32
2019-03-09T23:25:25.977Z,4.28
2019-03-09T23:27:55.492Z,4.22
2019-03-09T23:30:25.023Z,4.20
2019-03-09T23:32:54.669Z,4.16
2019-03-09T23:35:24.182Z,4.15
2019-03-09T23:37:53.710Z,4.15
2019-03-09T23:40:26.316Z,4.16
2019-03-09T23:42:55.814Z,4.18
2019-03-09T23:45:27.901Z,4.23
2019-03-09T23:47:57.457Z,4.29
2019-03-09T23:50:27.587Z,4.37
2019-03-09T23:52:57.228Z,4.44
2019-03-09T23:55:26.873Z,4.52
2019-03-09T23:57:56.549Z,4.61
